Map

Track Data

SID SEASON NUMBER BASIN SUBBASIN NAME ISO_TIME NATURE LAT LON WMO_WIND WMO_PRES WMO_AGENCY TRACK_TYPE DIST2LAND LANDFALL IFLAG USA_AGENCY USA_ATCF_ID USA_LAT USA_LON USA_RECORD USA_STATUS USA_WIND USA_PRES USA_SSHS USA_R34_NE USA_R34_SE USA_R34_SW USA_R34_NW USA_R50_NE USA_R50_SE USA_R50_SW USA_R50_NW USA_R64_NE USA_R64_SE USA_R64_SW USA_R64_NW USA_POCI USA_ROCI USA_RMW USA_EYE TOKYO_LAT TOKYO_LON TOKYO_GRADE TOKYO_WIND TOKYO_PRES TOKYO_R50_DIR TOKYO_R50_LONG TOKYO_R50_SHORT TOKYO_R30_DIR TOKYO_R30_LONG TOKYO_R30_SHORT TOKYO_LAND CMA_LAT CMA_LON CMA_CAT CMA_WIND CMA_PRES HKO_LAT HKO_LON HKO_CAT HKO_WIND HKO_PRES NEWDELHI_LAT NEWDELHI_LON NEWDELHI_GRADE NEWDELHI_WIND NEWDELHI_PRES NEWDELHI_CI NEWDELHI_DP NEWDELHI_POCI REUNION_LAT REUNION_LON REUNION_TYPE REUNION_WIND REUNION_PRES REUNION_TNUM REUNION_CI REUNION_RMW REUNION_R34_NE REUNION_R34_SE REUNION_R34_SW REUNION_R34_NW REUNION_R50_NE REUNION_R50_SE REUNION_R50_SW REUNION_R50_NW REUNION_R64_NE REUNION_R64_SE REUNION_R64_SW REUNION_R64_NW BOM_LAT BOM_LON BOM_TYPE BOM_WIND BOM_PRES BOM_TNUM BOM_CI BOM_RMW BOM_R34_NE BOM_R34_SE BOM_R34_SW BOM_R34_NW BOM_R50_NE BOM_R50_SE BOM_R50_SW BOM_R50_NW BOM_R64_NE BOM_R64_SE BOM_R64_SW BOM_R64_NW BOM_ROCI BOM_POCI BOM_EYE BOM_POS_METHOD BOM_PRES_METHOD NADI_LAT NADI_LON NADI_CAT NADI_WIND NADI_PRES WELLINGTON_LAT WELLINGTON_LON WELLINGTON_WIND WELLINGTON_PRES DS824_LAT DS824_LON DS824_STAGE DS824_WIND DS824_PRES TD9636_LAT TD9636_LON TD9636_STAGE TD9636_WIND TD9636_PRES TD9635_LAT TD9635_LON TD9635_WIND TD9635_PRES TD9635_ROCI NEUMANN_LAT NEUMANN_LON NEUMANN_CLASS NEUMANN_WIND NEUMANN_PRES MLC_LAT MLC_LON MLC_CLASS MLC_WIND MLC_PRES USA_GUST BOM_GUST BOM_GUST_PER REUNION_GUST REUNION_GUST_PER USA_SEAHGT USA_SEARAD_NE USA_SEARAD_SE USA_SEARAD_SW USA_SEARAD_NW STORM_SPEED STORM_DIR
1959240N34306 1959 69 NA NA NOT_NAMED 1959-08-28 06:00:00 TS 33.7000 -54.4000 40 hurdat_atl main 1401 1373 O_____________ hurdat_atl AL131959 33.7000 -54.4000 TS 40 0 6 326
1959240N34306 1959 69 NA NA NOT_NAMED 1959-08-28 09:00:00 TS 33.9551 -54.5997 main 1363 1335 P_____________ AL131959 33.9551 -54.5997 TS 40 0 6 326
1959240N34306 1959 69 NA NA NOT_NAMED 1959-08-28 12:00:00 TS 34.2000 -54.8000 40 hurdat_atl main 1335 1308 O_____________ hurdat_atl AL131959 34.2000 -54.8000 TS 40 0 6 325
1959240N34306 1959 69 NA NA NOT_NAMED 1959-08-28 15:00:00 TS 34.4350 -55.0002 main 1308 1270 P_____________ AL131959 34.4350 -55.0002 TS 40 0 6 326
1959240N34306 1959 69 NA NA NOT_NAMED 1959-08-28 18:00:00 TS 34.7000 -55.2000 40 hurdat_atl main 1270 1232 O_____________ hurdat_atl AL131959 34.7000 -55.2000 TS 40 0 7 331
1959240N34306 1959 69 NA NA NOT_NAMED 1959-08-28 21:00:00 TS 35.0275 -55.4075 main 1232 1184 P_____________ AL131959 35.0275 -55.4075 TS 40 0 8 335
1959240N34306 1959 69 NA NA NOT_NAMED 1959-08-29 00:00:00 TS 35.4000 -55.6000 40 hurdat_atl main 1184 1136 O_____________ hurdat_atl AL131959 35.4000 -55.6000 TS 40 0 9 339
1959240N34306 1959 69 NA NA NOT_NAMED 1959-08-29 03:00:00 TS 35.8225 -55.7724 main 1136 1091 P_____________ AL131959 35.8225 -55.7724 TS 40 0 8 343
1959240N34306 1959 69 NA NA NOT_NAMED 1959-08-29 06:00:00 TS 36.2000 -55.9000 40 hurdat_atl main 1091 1067 O_____________ hurdat_atl AL131959 36.2000 -55.9000 TS 40 0 7 344
1959240N34306 1959 69 NA NA NOT_NAMED 1959-08-29 09:00:00 TS 36.4599 -55.9952 main 1057 1047 P_____________ AL131959 36.4599 -55.9952 TS 40 0 4 349
1959240N34306 1959 69 NA NA NOT_NAMED 1959-08-29 12:00:00 TS 36.6000 -56.0000 40 hurdat_atl main 1047 1047 O_____________ hurdat_atl AL131959 36.6000 -56.0000 TS 40 0 2 20
1959240N34306 1959 69 NA NA NOT_NAMED 1959-08-29 15:00:00 TS 36.6222 -55.9324 main 1050 1050 P_____________ AL131959 36.6222 -55.9324 TS 42 0 2 90
1959240N34306 1959 69 NA NA NOT_NAMED 1959-08-29 18:00:00 TS 36.6000 -55.7000 45 hurdat_atl main 1057 1057 O_____________ hurdat_atl AL131959 36.6000 -55.7000 TS 45 0 5 90
1959240N34306 1959 69 NA NA NOT_NAMED 1959-08-29 21:00:00 TS 36.6258 -55.3567 main 1068 1068 P_____________ AL131959 36.6258 -55.3567 TS 45 0 8 83
1959240N34306 1959 69 NA NA NOT_NAMED 1959-08-30 00:00:00 TS 36.7000 -54.7000 45 hurdat_atl main 1086 1086 O_____________ hurdat_atl AL131959 36.7000 -54.7000 TS 45 0 14 82
1959240N34306 1959 69 NA NA NOT_NAMED 1959-08-30 03:00:00 TS 36.8218 -53.5898 main 1090 1068 P_____________ AL131959 36.8218 -53.5898 TS 45 0 19 81
1959240N34306 1959 69 NA NA NOT_NAMED 1959-08-30 06:00:00 TS 37.0000 -52.3000 45 hurdat_atl main 1070 1054 O_____________ hurdat_atl AL131959 37.0000 -52.3000 TS 45 0 20 78
1959240N34306 1959 69 NA NA NOT_NAMED 1959-08-30 09:00:00 TS 37.2497 -51.1409 main 1059 1039 P_____________ AL131959 37.2497 -51.1409 TS 45 0 18 74
1959240N34306 1959 69 NA NA NOT_NAMED 1959-08-30 12:00:00 TS 37.5000 -50.1000 45 hurdat_atl main 1043 1039 O_____________ hurdat_atl AL131959 37.5000 -50.1000 TS 45 0 16 74
1959240N34306 1959 69 NA NA NOT_NAMED 1959-08-30 15:00:00 TS 37.6714 -49.2243 main 1042 1042 P_____________ AL131959 37.6714 -49.2243 TS 45 0 13 77
1959240N34306 1959 69 NA NA NOT_NAMED 1959-08-30 18:00:00 TS 37.8000 -48.5000 45 hurdat_atl main 1051 1050 O_____________ hurdat_atl AL131959 37.8000 -48.5000 TS 45 0 11 77
1959240N34306 1959 69 NA NA NOT_NAMED 1959-08-30 21:00:00 TS 37.9224 -47.8025 main 1063 1060 P_____________ AL131959 37.9224 -47.8025 TS 47 0 10 78
1959240N34306 1959 69 NA NA NOT_NAMED 1959-08-31 00:00:00 TS 38.0000 -47.3000 50 hurdat_atl main 1070 1070 O_____________ hurdat_atl AL131959 38.0000 -47.3000 TS 50 0 6 81
1959240N34306 1959 69 NA NA NOT_NAMED 1959-08-31 03:00:00 TS 38.0144 -47.0897 main 1078 1078 P_____________ AL131959 38.0144 -47.0897 TS 52 0 2 90
1959240N34306 1959 69 NA NA NOT_NAMED 1959-08-31 06:00:00 TS 38.0000 -47.0000 55 hurdat_atl main 1082 1082 O_____________ hurdat_atl AL131959 38.0000 -47.0000 TS 55 0 2 98
1959240N34306 1959 69 NA NA NOT_NAMED 1959-08-31 09:00:00 TS 37.9850 -46.8148 main 1089 1089 P_____________ AL131959 37.9850 -46.8148 TS 55 0 3 90
1959240N34306 1959 69 NA NA NOT_NAMED 1959-08-31 12:00:00 TS 38.0000 -46.6000 55 hurdat_atl main 1097 1097 O_____________ hurdat_atl AL131959 38.0000 -46.6000 TS 55 0 4 79
1959240N34306 1959 69 NA NA NOT_NAMED 1959-08-31 15:00:00 TS 38.0549 -46.3721 main 1096 1094 P_____________ AL131959 38.0549 -46.3721 TS 55 0 4 63
1959240N34306 1959 69 NA NA NOT_NAMED 1959-08-31 18:00:00 TS 38.2000 -46.1000 55 hurdat_atl main 1099 1088 O_____________ hurdat_atl AL131959 38.2000 -46.1000 TS 55 0 6 50
1959240N34306 1959 69 NA NA NOT_NAMED 1959-08-31 21:00:00 TS 38.4627 -45.7430 main 1088 1073 P_____________ AL131959 38.4627 -45.7430 TS 55 0 8 42
1959240N34306 1959 69 NA NA NOT_NAMED 1959-09-01 00:00:00 TS 38.8000 -45.4000 55 hurdat_atl main 1073 1047 O_____________ hurdat_atl AL131959 38.8000 -45.4000 TS 55 0 9 32
1959240N34306 1959 69 NA NA NOT_NAMED 1959-09-01 03:00:00 TS 39.1874 -45.1625 main 1047 1030 P_____________ AL131959 39.1874 -45.1625 TS 55 0 8 24
1959240N34306 1959 69 NA NA NOT_NAMED 1959-09-01 06:00:00 TS 39.5000 -45.0000 55 hurdat_atl main 1030 1021 O_____________ hurdat_atl AL131959 39.5000 -45.0000 TS 55 0 5 29
1959240N34306 1959 69 NA NA NOT_NAMED 1959-09-01 09:00:00 TS 39.5950 -44.8696 main 1026 1026 P_____________ AL131959 39.5950 -44.8696 TS 55 0 2 57
1959240N34306 1959 69 NA NA NOT_NAMED 1959-09-01 12:00:00 TS 39.6000 -44.8000 55 hurdat_atl main 1032 1032 O_____________ hurdat_atl AL131959 39.6000 -44.8000 TS 55 0 1 32
1959240N34306 1959 69 NA NA NOT_NAMED 1959-09-01 15:00:00 TS 39.6424 -44.8149 main 1032 1023 P_____________ AL131959 39.6424 -44.8149 TS 55 0 1 0
1959240N34306 1959 69 NA NA NOT_NAMED 1959-09-01 18:00:00 TS 39.7000 -44.8000 55 hurdat_atl main 1023 1020 O_____________ hurdat_atl AL131959 39.7000 -44.8000 TS 55 0 2 42
1959240N34306 1959 69 NA NA NOT_NAMED 1959-09-01 21:00:00 TS 39.7925 -44.6376 main 1025 1022 P_____________ AL131959 39.7925 -44.6376 TS 55 0 4 57
1959240N34306 1959 69 NA NA NOT_NAMED 1959-09-02 00:00:00 TS 39.9000 -44.4000 55 hurdat_atl main 1027 1025 O_____________ hurdat_atl AL131959 39.9000 -44.4000 TS 55 0 4 59
1959240N34306 1959 69 NA NA NOT_NAMED 1959-09-02 03:00:00 TS 39.9920 -44.2096 main 1030 1030 P_____________ AL131959 39.9920 -44.2096 TS 55 0 4 63
1959240N34306 1959 69 NA NA NOT_NAMED 1959-09-02 06:00:00 TS 40.1000 -43.9000 55 hurdat_atl main 1039 1039 O_____________ hurdat_atl AL131959 40.1000 -43.9000 TS 55 0 7 70
1959240N34306 1959 69 NA NA NOT_NAMED 1959-09-02 09:00:00 TS 40.2201 -43.3669 main 1060 1060 P_____________ AL131959 40.2201 -43.3669 TS 55 0 10 72
1959240N34306 1959 69 NA NA NOT_NAMED 1959-09-02 12:00:00 TS 40.4000 -42.7000 55 hurdat_atl main 1087 1087 O_____________ hurdat_atl AL131959 40.4000 -42.7000 TS 55 0 11 67
1959240N34306 1959 69 NA NA NOT_NAMED 1959-09-02 15:00:00 TS 40.6472 -42.0216 main 1116 1109 P_____________ AL131959 40.6472 -42.0216 TS 55 0 12 61
1959240N34306 1959 69 NA NA NOT_NAMED 1959-09-02 18:00:00 TS 41.0000 -41.3000 55 hurdat_atl main 1132 1132 O_____________ hurdat_atl AL131959 41.0000 -41.3000 TS 55 0 13 53
1959240N34306 1959 69 NA NA NOT_NAMED 1959-09-02 21:00:00 TS 41.4539 -40.5934 main 1146 1146 P_____________ AL131959 41.4539 -40.5934 TS 55 0 15 48
1959240N34306 1959 69 NA NA NOT_NAMED 1959-09-03 00:00:00 TS 42.0000 -39.8000 55 hurdat_atl main 1170 1170 O_____________ hurdat_atl AL131959 42.0000 -39.8000 TS 55 0 17 49
1959240N34306 1959 69 NA NA NOT_NAMED 1959-09-03 03:00:00 TS 42.5763 -38.8803 main 1200 1200 P_____________ AL131959 42.5763 -38.8803 TS 55 0 19 51
1959240N34306 1959 69 NA NA NOT_NAMED 1959-09-03 06:00:00 ET 43.2000 -37.8000 55 hurdat_atl main 1244 1244 O_____________ hurdat_atl AL131959 43.2000 -37.8000 EX 55 -4 21 55
1959240N34306 1959 69 NA NA NOT_NAMED 1959-09-03 09:00:00 ET 43.7524 -36.5448 main 1309 1309 P_____________ AL131959 43.7524 -36.5448 EX 55 -4 23 55
1959240N34306 1959 69 NA NA NOT_NAMED 1959-09-03 12:00:00 ET 44.5000 -35.2000 55 hurdat_atl main 1376 1376 O_____________ hurdat_atl AL131959 44.5000 -35.2000 EX 55 -4 27 45
1959240N34306 1959 69 NA NA NOT_NAMED 1959-09-03 15:00:00 ET 45.6568 -33.9136 main 1433 1433 P_____________ AL131959 45.6568 -33.9136 EX 55 -4 31 37
1959240N34306 1959 69 NA NA NOT_NAMED 1959-09-03 18:00:00 ET 47.0000 -32.5000 55 hurdat_atl main 1507 1507 O_____________ hurdat_atl AL131959 47.0000 -32.5000 EX 55 -4 33 40
1959240N34306 1959 69 NA NA NOT_NAMED 1959-09-03 21:00:00 ET 48.1589 -30.8292 main 1497 1332 P_____________ AL131959 48.1589 -30.8292 EX 57 -4 34 43
1959240N34306 1959 69 NA NA NOT_NAMED 1959-09-04 00:00:00 ET 49.5000 -29.0000 60 hurdat_atl main 1321 1145 O_____________ hurdat_atl AL131959 49.5000 -29.0000 EX 60 -4 39 40
1959240N34306 1959 69 NA NA NOT_NAMED 1959-09-04 03:00:00 ET 51.1420 -26.9877 main 1136 984 P_____________ AL131959 51.1420 -26.9877 EX 60 -4 45 34
1959240N34306 1959 69 NA NA NOT_NAMED 1959-09-04 06:00:00 ET 53.2000 -25.0000 60 hurdat_atl main 976 852 O_____________ hurdat_atl AL131959 53.2000 -25.0000 EX 60 -4 51 26
1959240N34306 1959 69 NA NA NOT_NAMED 1959-09-04 09:00:00 ET 55.7209 -23.2358 main 846 580 P_____________ AL131959 55.7209 -23.2358 EX 60 -4 56 20
1959240N34306 1959 69 NA NA NOT_NAMED 1959-09-04 12:00:00 ET 58.5000 -21.5000 60 hurdat_atl main 557 O_____________ hurdat_atl AL131959 58.5000 -21.5000 EX 60 -4 58 18

About IBTrACS Database

This database is a web-friendly format of International Best Track Archive for Climate Stewardship (IBTrACS), a global best track data archive curated by NOAA dating back to 1842.

Updated: 2021-12-06